Landis, Arkansas
Current Conditions -  °F | °C
As of 4:15 AM on Sunday 23 Nov 2014 (Local Time) from KFLP Reporting Station
Overcast Overcast  
Wind Chill: 57°   Ceiling: 2200
Heat Index: 57°   Visibility: 10mi
Dew Point: 48°   Wind: 6mph
Humidity: 72%   Direction: 140°SE
Pressure: 29.7"   Gusts: NA
Location:  35.9407°N, 92.655°W
Report Text: KFLP 231015Z AUTO 14005KT 10SM BKN022 OVC034 14/09 A2970 RMK AO1
Loading
Personal Weather Stations






























Interactive Weather Map New forecast layout! Learn more

10-Day Weather Forecast

Advertisements
Track Severe Weather on mobile